ドレスデン の空港の天気 - METARとTAF

ドレスデン空港 ( EDDC / DRS ) - ドイツ ドレスデン
飛行場実況気象(Metar)
観測時間05/26 11:50 CEST (05/26 09:50 UTC)
風向・風速北 4m/s
視程10km以上
天気現象
全天の8割程度の雲 雲底高度 940m
気温15℃
湿度59%
気圧1034hPa
METAREDDC 260950Z 35008KT 310V030 9999 BKN031 15/07 Q1034 NOSIG
過去の天気等 Google飛行場航空写真 Wunderground天気予報

過去48時間のMETAR

飛行場予報(TAF)
発表時間: 5/26 07:00 CEST (5/26 05:00 UTC)
予報対象時間: 26日8時 CEST ~ 27日8時 CEST
風向・風速北 4m/s
視程10km以上
全天の8割程度の雲 雲底高度 240m
26日8時 CEST ~ 26日10時 CEST に徐々に
全天の8割程度の雲 雲底高度 430m
26日10時 CEST ~ 26日12時 CEST に徐々に
視程10km以上
なし
26日20時 CEST ~ 26日22時 CEST に徐々に
風向・風速南南西 2m/s
TAF EDDC 260500Z 2606/2706 35007KT 9999 BKN008
BECMG 2606/2608 BKN014
BECMG 2608/2610 CAVOK
BECMG 2618/2620 20004KT